Time;durP1;ratioP1;P1;durP2;ratioP2;P2;SDS_P1;SDS_P2;PMS_P1;PMS_P2;Temp;Humidity;BMP_temperature;BMP_pressure;BME280_temperature;BME280_humidity;BME280_pressure;Samples;Min_cycle;Max_cycle;Signal;HPM_P1;HPM_P2
2023/12/30 00:02:20;;;;;;;3.55;1.00;;;;;;;7.89;97.53;99911.31;7389455;19;20336;-69
2023/12/30 00:04:47;;;;;;;6.90;1.30;;;;;;;7.90;96.91;99913.75;7387851;19;20356;-69
2023/12/30 00:07:14;;;;;;;3.45;1.17;;;;;;;7.88;95.41;99904.38;7386322;19;20340;-68
2023/12/30 00:09:40;;;;;;;2.67;1.10;;;;;;;7.90;95.33;99905.00;7386317;19;20348;-68
2023/12/30 00:12:07;;;;;;;3.27;0.83;;;;;;;7.92;96.13;99908.28;7390436;19;20456;-68
2023/12/30 00:14:34;;;;;;;3.17;0.93;;;;;;;7.92;95.81;99906.47;7393982;19;20368;-68
2023/12/30 00:17:01;;;;;;;4.78;1.15;;;;;;;7.95;95.99;99937.00;7394654;19;20353;-68
2023/12/30 00:19:27;;;;;;;4.40;1.40;;;;;;;8.00;96.68;99891.56;7392368;19;20479;-68
2023/12/30 00:21:54;;;;;;;3.60;1.13;;;;;;;8.00;97.20;99892.38;7392014;19;20348;-68
2023/12/30 00:24:21;;;;;;;4.82;1.05;;;;;;;8.03;97.37;99889.38;7391677;19;20360;-68
2023/12/30 00:26:49;;;;;;;2.05;0.75;;;;;;;8.00;96.33;99886.28;7394252;19;20372;-68
2023/12/30 00:29:16;;;;;;;3.33;1.15;;;;;;;7.99;96.33;99885.47;7388929;19;20915;-69
2023/12/30 00:31:43;;;;;;;2.10;0.90;;;;;;;7.96;96.55;99876.06;7388117;19;20365;-67
2023/12/30 00:34:10;;;;;;;2.60;0.80;;;;;;;7.93;96.66;99889.66;7394062;19;20364;-67
2023/12/30 00:36:42;;;;;;;1.60;0.70;;;;;;;7.88;96.56;99893.81;7390169;19;20348;-67
2023/12/30 00:39:08;;;;;;;2.80;0.70;;;;;;;7.80;96.22;99901.78;7390368;19;20393;-67
2023/12/30 00:41:36;;;;;;;1.77;0.70;;;;;;;7.78;95.86;99895.84;7391151;19;20726;-67
2023/12/30 00:44:02;;;;;;;1.45;0.50;;;;;;;7.69;94.67;99901.22;7391453;19;20332;-67
2023/12/30 00:46:29;;;;;;;1.00;0.50;;;;;;;7.64;93.78;99927.31;7392581;19;20366;-67
2023/12/30 00:48:56;;;;;;;1.85;0.50;;;;;;;7.69;93.44;99892.44;7391788;19;20382;-67
2023/12/30 00:51:24;;;;;;;1.20;0.50;;;;;;;7.71;92.36;99888.66;7384315;19;20444;-68
2023/12/30 00:53:51;;;;;;;1.50;0.40;;;;;;;7.71;91.70;99903.66;7383588;19;21197;-67
2023/12/30 00:56:18;;;;;;;2.05;0.50;;;;;;;7.69;91.13;99900.38;7387822;19;20368;-67
2023/12/30 00:58:45;;;;;;;1.40;0.50;;;;;;;7.68;90.74;99925.97;7390174;19;20333;-68
2023/12/30 01:01:12;;;;;;;2.38;0.60;;;;;;;7.70;90.65;99928.44;7392613;19;20364;-67
2023/12/30 01:03:40;;;;;;;1.13;0.50;;;;;;;7.70;89.99;99933.72;7391477;19;20410;-67
2023/12/30 01:06:08;;;;;;;2.38;0.52;;;;;;;7.73;89.53;99931.53;7390092;19;20792;-68
2023/12/30 01:08:35;;;;;;;1.42;0.55;;;;;;;7.76;89.89;99949.66;7388871;19;20332;-67
2023/12/30 01:11:03;;;;;;;1.38;0.40;;;;;;;7.79;88.94;99940.56;7388709;19;20874;-67
2023/12/30 01:13:30;;;;;;;2.13;0.47;;;;;;;7.83;88.94;99948.97;7388324;19;20385;-68
2023/12/30 01:15:57;;;;;;;1.70;0.50;;;;;;;7.81;88.24;99949.13;7390138;19;20729;-67
2023/12/30 01:18:25;;;;;;;1.58;0.50;;;;;;;7.82;87.98;99942.03;7394056;19;20662;-68
2023/12/30 01:20:52;;;;;;;1.02;0.40;;;;;;;7.84;88.12;99961.16;7389591;19;20717;-67
2023/12/30 01:23:19;;;;;;;1.70;0.50;;;;;;;7.86;88.46;99946.81;7392288;19;20339;-67
2023/12/30 01:25:45;;;;;;;2.38;0.60;;;;;;;7.83;88.47;99946.34;7392429;19;20336;-68
2023/12/30 01:28:12;;;;;;;1.58;0.50;;;;;;;7.74;87.82;99941.09;7390544;19;20739;-67
2023/12/30 01:30:40;;;;;;;1.88;0.30;;;;;;;7.72;87.95;99952.84;7389492;19;20341;-67
2023/12/30 01:33:07;;;;;;;1.73;0.40;;;;;;;7.72;87.70;99958.94;7388623;19;20337;-67
2023/12/30 01:35:35;;;;;;;3.10;0.40;;;;;;;7.64;87.62;99968.72;7387455;19;20657;-67
2023/12/30 01:38:01;;;;;;;2.25;0.60;;;;;;;7.62;87.47;99984.72;7393864;19;20356;-67
2023/12/30 01:40:32;;;;;;;1.40;0.63;;;;;;;7.63;88.17;99974.97;7389974;19;20360;-68
2023/12/30 01:43:02;;;;;;;2.15;0.60;;;;;;;7.60;88.43;99986.72;7390504;19;20372;-67
2023/12/30 01:45:30;;;;;;;1.58;0.40;;;;;;;7.52;88.87;99989.38;7384934;19;20365;-67
2023/12/30 01:47:58;;;;;;;1.33;0.40;;;;;;;7.49;89.03;99985.28;7392555;19;20368;-67
2023/12/30 01:50:25;;;;;;;2.70;0.45;;;;;;;7.46;88.60;99975.09;7386261;19;20329;-67
2023/12/30 01:52:53;;;;;;;1.92;0.30;;;;;;;7.40;88.58;99967.03;7388191;19;20344;-67
2023/12/30 01:55:20;;;;;;;2.83;0.60;;;;;;;7.37;88.89;99970.81;7387720;19;20349;-67
2023/12/30 01:57:46;;;;;;;1.45;0.40;;;;;;;7.37;88.62;99991.13;7389459;19;20372;-67
2023/12/30 02:00:22;;;;;;;1.58;0.30;;;;;;;7.31;88.52;99985.53;7386285;19;20491;-67
2023/12/30 02:02:49;;;;;;;2.47;0.60;;;;;;;7.28;88.96;99977.94;7389822;19;20411;-67
2023/12/30 02:05:17;;;;;;;3.03;0.60;;;;;;;7.25;88.52;99986.22;7390298;19;20353;-67
2023/12/30 02:07:45;;;;;;;2.38;0.45;;;;;;;7.23;88.06;100016.41;7391173;19;20336;-67
2023/12/30 02:10:12;;;;;;;1.42;0.57;;;;;;;7.22;88.14;99994.47;7386428;19;20360;-67
2023/12/30 02:12:39;;;;;;;3.58;0.55;;;;;;;7.24;87.57;100018.84;7390808;19;20348;-67
2023/12/30 02:15:14;;;;;;;3.10;0.57;;;;;;;7.27;87.55;100005.34;7387623;19;20376;-67
2023/12/30 02:17:41;;;;;;;1.60;0.50;;;;;;;7.27;87.01;100023.81;7385586;19;20893;-67
2023/12/30 02:20:08;;;;;;;2.97;0.70;;;;;;;7.32;87.57;100008.28;7386826;19;20415;-67
2023/12/30 02:22:35;;;;;;;3.90;0.55;;;;;;;7.34;87.46;100003.66;7391054;19;20337;-67
2023/12/30 02:25:02;;;;;;;2.58;0.60;;;;;;;7.39;87.04;100015.50;7385618;19;20364;-67
2023/12/30 02:27:29;;;;;;;2.80;0.75;;;;;;;7.42;86.63;100044.22;7389499;19;20369;-67
2023/12/30 02:29:56;;;;;;;2.50;0.73;;;;;;;7.43;86.11;100011.53;7394127;19;20787;-67
2023/12/30 02:32:23;;;;;;;2.25;0.57;;;;;;;7.45;86.07;100018.28;7395390;19;20429;-67
2023/12/30 02:34:49;;;;;;;2.70;0.60;;;;;;;7.43;85.57;100016.81;7394551;19;20353;-67
2023/12/30 02:37:16;;;;;;;3.47;0.70;;;;;;;7.43;85.60;100027.38;7394261;19;20336;-67
2023/12/30 02:39:43;;;;;;;3.95;0.90;;;;;;;7.42;86.14;100033.66;7397390;19;20346;-67
2023/12/30 02:42:10;;;;;;;3.93;1.00;;;;;;;7.40;86.12;100038.28;7395803;19;20364;-67
2023/12/30 02:44:36;;;;;;;2.95;0.88;;;;;;;7.35;86.02;100031.69;7397016;19;20397;-67
2023/12/30 02:47:03;;;;;;;4.30;0.90;;;;;;;7.35;86.55;100030.84;7396592;19;20360;-67
2023/12/30 02:49:32;;;;;;;3.22;0.90;;;;;;;7.40;86.28;100038.28;7397471;19;20383;-67
2023/12/30 02:51:59;;;;;;;4.45;0.82;;;;;;;7.37;86.65;100041.25;7394083;19;20377;-67
2023/12/30 02:54:28;;;;;;;4.70;0.90;;;;;;;7.34;87.24;100040.59;7396906;19;20808;-67
2023/12/30 02:56:55;;;;;;;5.03;1.17;;;;;;;7.35;87.27;100044.88;7396106;19;20351;-67
2023/12/30 02:59:22;;;;;;;4.13;0.93;;;;;;;7.34;86.97;100069.63;7391094;19;20336;-67
2023/12/30 03:01:49;;;;;;;3.13;0.90;;;;;;;7.38;87.13;100061.38;7393931;19;20364;-67
2023/12/30 03:04:16;;;;;;;4.22;1.35;;;;;;;7.38;87.05;100054.28;7397961;19;20337;-67
2023/12/30 03:06:43;;;;;;;3.63;0.80;;;;;;;7.39;86.97;100068.28;7392203;19;20348;-67
2023/12/30 03:09:10;;;;;;;4.03;1.00;;;;;;;7.39;87.08;100073.56;7391173;19;20368;-67
2023/12/30 03:11:37;;;;;;;5.03;0.88;;;;;;;7.33;87.27;100080.31;7391691;19;20344;-67
2023/12/30 03:14:03;;;;;;;4.13;1.08;;;;;;;7.31;87.29;100077.88;7398174;19;20397;-67
2023/12/30 03:16:31;;;;;;;3.90;0.80;;;;;;;7.38;87.31;100085.13;7391978;19;20368;-67
2023/12/30 03:18:58;;;;;;;5.03;1.00;;;;;;;7.31;87.49;100079.66;7395565;19;20722;-67
2023/12/30 03:21:25;;;;;;;3.58;0.70;;;;;;;7.32;87.76;100074.25;7392780;19;20372;-67
2023/12/30 03:23:52;;;;;;;7.03;1.27;;;;;;;7.27;88.11;100083.66;7391515;19;20754;-67
2023/12/30 03:26:18;;;;;;;3.25;1.10;;;;;;;7.25;88.29;100083.81;7394695;19;20348;-67
2023/12/30 03:28:45;;;;;;;4.00;1.05;;;;;;;7.22;88.35;100086.78;7396041;19;20360;-67
2023/12/30 03:31:21;;;;;;;3.20;0.85;;;;;;;7.22;88.31;100084.16;7395273;19;20686;-67
2023/12/30 03:33:48;;;;;;;4.15;1.00;;;;;;;7.20;88.60;100083.50;7393081;19;20356;-67
2023/12/30 03:36:15;;;;;;;6.05;1.20;;;;;;;7.24;88.06;100068.97;7396510;19;20349;-67
2023/12/30 03:38:42;;;;;;;4.20;1.30;;;;;;;7.23;88.02;100090.28;7392163;19;20373;-67
2023/12/30 03:41:09;;;;;;;5.13;1.20;;;;;;;7.15;88.19;100093.72;7392553;19;20332;-67
2023/12/30 03:43:35;;;;;;;4.15;1.10;;;;;;;7.10;88.25;100088.97;7391820;19;20329;-67
2023/12/30 03:46:02;;;;;;;4.80;1.10;;;;;;;7.05;88.10;100093.91;7392381;19;20376;-67
2023/12/30 03:48:29;;;;;;;5.32;1.23;;;;;;;7.04;88.31;100096.72;7395887;19;20336;-67
2023/12/30 03:50:56;;;;;;;6.43;1.27;;;;;;;6.98;88.55;100103.47;7393587;19;20431;-67
2023/12/30 03:53:22;;;;;;;3.15;1.00;;;;;;;7.00;88.59;100112.03;7389046;19;20344;-67
2023/12/30 03:55:50;;;;;;;4.57;1.10;;;;;;;6.91;88.90;100113.06;7390347;19;20978;-67
2023/12/30 03:58:16;;;;;;;4.57;1.10;;;;;;;6.91;88.68;100129.69;7391151;19;20336;-68
2023/12/30 04:00:43;;;;;;;5.13;1.30;;;;;;;6.89;88.90;100129.03;7395007;19;20356;-67
2023/12/30 04:03:10;;;;;;;3.92;1.05;;;;;;;6.88;88.70;100119.44;7392139;19;20352;-67
2023/12/30 04:05:37;;;;;;;3.60;1.10;;;;;;;6.89;88.77;100115.84;7391540;19;20673;-67
2023/12/30 04:08:04;;;;;;;4.77;1.17;;;;;;;6.87;88.81;100125.72;7393838;19;21836;-67
2023/12/30 04:10:30;;;;;;;4.88;1.30;;;;;;;6.84;88.09;100133.97;7394888;19;20344;-66
2023/12/30 04:12:57;;;;;;;3.78;1.00;;;;;;;6.85;88.14;100114.53;7392793;19;20341;-67
2023/12/30 04:15:24;;;;;;;5.28;1.40;;;;;;;6.89;87.78;100126.41;7389473;19;20375;-67
2023/12/30 04:17:51;;;;;;;5.22;1.30;;;;;;;6.90;87.62;100122.75;7391527;19;20356;-67
2023/12/30 04:20:18;;;;;;;5.00;1.38;;;;;;;6.90;87.50;100143.84;7393309;19;20341;-67
2023/12/30 04:22:45;;;;;;;4.72;1.20;;;;;;;6.88;87.69;100135.28;7391513;19;20353;-67
2023/12/30 04:25:12;;;;;;;5.00;1.27;;;;;;;6.90;87.73;100138.56;7389610;19;20353;-67
2023/12/30 04:27:38;;;;;;;5.03;1.27;;;;;;;6.89;87.78;100131.66;7391347;19;20344;-67
2023/12/30 04:30:06;;;;;;;3.80;1.27;;;;;;;6.88;87.51;100139.72;7391733;19;20348;-67
2023/12/30 04:32:33;;;;;;;5.20;1.30;;;;;;;6.82;87.74;100132.47;7391597;19;20353;-67
2023/12/30 04:35:03;;;;;;;4.20;1.13;;;;;;;6.81;87.79;100123.75;7387230;19;20365;-67
2023/12/30 04:37:30;;;;;;;5.13;1.20;;;;;;;6.81;87.67;100122.94;7390093;19;20360;-67
2023/12/30 04:39:57;;;;;;;5.55;1.20;;;;;;;6.80;87.51;100130.03;7392667;19;20348;-66
2023/12/30 04:42:23;;;;;;;5.18;1.10;;;;;;;6.79;87.65;100130.19;7391203;19;20380;-66
2023/12/30 04:44:51;;;;;;;4.40;1.42;;;;;;;6.76;87.62;100126.06;7391429;19;20340;-67
2023/12/30 04:47:18;;;;;;;6.85;1.38;;;;;;;6.72;87.42;100130.00;7392160;19;20340;-67
2023/12/30 04:49:45;;;;;;;5.05;1.38;;;;;;;6.71;87.13;100159.97;7390511;19;20341;-67
2023/12/30 04:52:12;;;;;;;4.43;1.35;;;;;;;6.74;86.94;100144.69;7384240;19;20455;-66
2023/12/30 04:54:42;;;;;;;5.80;1.35;;;;;;;6.76;86.97;100156.84;7389535;19;20352;-67
2023/12/30 04:57:09;;;;;;;4.88;1.30;;;;;;;6.76;87.08;100141.88;7392683;19;20351;-67
2023/12/30 04:59:36;;;;;;;4.90;1.58;;;;;;;6.74;87.03;100167.59;7390956;19;20356;-67
2023/12/30 05:02:03;;;;;;;7.28;1.50;;;;;;;6.73;87.09;100168.56;7391520;19;20389;-67
2023/12/30 05:04:30;;;;;;;6.07;1.70;;;;;;;6.74;87.36;100172.84;7389708;19;20352;-67
2023/12/30 05:06:57;;;;;;;6.20;1.40;;;;;;;6.73;87.40;100173.81;7389989;19;20801;-67
2023/12/30 05:09:24;;;;;;;6.68;1.48;;;;;;;6.76;87.16;100210.41;7389894;19;20752;-67
2023/12/30 05:11:51;;;;;;;6.25;1.60;;;;;;;6.74;87.09;100162.31;7391363;19;20432;-67
2023/12/30 05:14:19;;;;;;;5.22;1.40;;;;;;;6.74;87.11;100176.31;7391675;19;20377;-67
2023/12/30 05:16:47;;;;;;;6.82;1.60;;;;;;;6.73;86.98;100184.38;7389452;19;20376;-67
2023/12/30 05:19:14;;;;;;;6.38;1.60;;;;;;;6.75;86.94;100203.47;7393383;19;20384;-67
2023/12/30 05:21:41;;;;;;;6.90;1.50;;;;;;;6.74;86.96;100180.75;7388528;19;20349;-66
2023/12/30 05:24:08;;;;;;;9.27;1.80;;;;;;;6.78;86.50;100184.72;7390759;19;20381;-67
2023/12/30 05:26:35;;;;;;;7.30;1.73;;;;;;;6.80;86.62;100180.13;7391297;19;20339;-66
2023/12/30 05:29:01;;;;;;;7.72;1.92;;;;;;;6.82;86.51;100182.56;7389976;19;20747;-67
2023/12/30 05:31:28;;;;;;;7.20;1.50;;;;;;;6.80;86.55;100185.38;7388973;19;20467;-67
2023/12/30 05:33:55;;;;;;;7.63;2.03;;;;;;;6.81;86.55;100192.28;7390877;19;20360;-66
2023/12/30 05:36:21;;;;;;;5.97;1.75;;;;;;;6.82;86.45;100199.22;7390006;19;20324;-66
2023/12/30 05:38:48;;;;;;;6.20;1.83;;;;;;;6.88;86.64;100198.56;7393932;19;20734;-66
2023/12/30 05:41:15;;;;;;;8.25;1.60;;;;;;;6.89;86.93;100194.94;7392204;19;20357;-66
2023/12/30 05:43:42;;;;;;;7.50;1.70;;;;;;;6.91;86.82;100207.97;7388729;19;20357;-66
2023/12/30 05:46:15;;;;;;;7.30;1.95;;;;;;;6.96;86.66;100220.66;7388162;19;20361;-66
2023/12/30 05:48:43;;;;;;;6.95;2.20;;;;;;;6.99;86.75;100201.88;7392971;19;20871;-66
2023/12/30 05:51:11;;;;;;;5.72;1.90;;;;;;;7.03;86.81;100200.56;7388355;19;20336;-66
2023/12/30 05:53:40;;;;;;;6.82;1.98;;;;;;;7.05;86.63;100214.41;7386228;19;20867;-67
2023/12/30 05:56:07;;;;;;;7.90;2.13;;;;;;;7.07;86.42;100201.88;7392701;19;20665;-67
2023/12/30 05:58:34;;;;;;;8.02;2.13;;;;;;;7.13;85.72;100211.78;7391537;19;20367;-68
2023/12/30 06:01:02;;;;;;;9.43;2.83;;;;;;;7.20;85.63;100212.75;7389580;19;20357;-66
2023/12/30 06:03:29;;;;;;;8.52;1.75;;;;;;;7.24;85.21;100221.97;7395949;19;20357;-66
2023/12/30 06:05:55;;;;;;;8.95;2.42;;;;;;;7.27;84.96;100221.69;7397331;19;20678;-67
2023/12/30 06:08:22;;;;;;;6.10;2.00;;;;;;;7.30;84.54;100228.44;7389465;19;20347;-67
2023/12/30 06:10:51;;;;;;;8.27;2.13;;;;;;;7.32;84.65;100232.53;7394698;19;20776;-67
2023/12/30 06:13:18;;;;;;;7.70;2.35;;;;;;;7.32;84.18;100248.38;7392729;19;20769;-66
2023/12/30 06:15:51;;;;;;;7.70;2.30;;;;;;;7.29;83.62;100240.81;7390404;19;20344;-67
2023/12/30 06:18:18;;;;;;;7.32;2.33;;;;;;;7.28;83.62;100235.69;7393999;19;20372;-67
2023/12/30 06:20:46;;;;;;;9.02;2.47;;;;;;;7.32;83.78;100221.16;7393058;19;20352;-67
2023/12/30 06:23:14;;;;;;;7.15;2.20;;;;;;;7.29;83.74;100238.16;7391839;19;20344;-67
2023/12/30 06:25:41;;;;;;;9.63;2.10;;;;;;;7.27;84.00;100239.31;7389270;19;20470;-67
2023/12/30 06:28:08;;;;;;;6.13;2.10;;;;;;;7.21;84.27;100250.53;7394402;19;20388;-67
2023/12/30 06:30:35;;;;;;;8.57;2.35;;;;;;;7.19;84.64;100253.31;7392686;19;20386;-67
2023/12/30 06:33:06;;;;;;;6.57;2.38;;;;;;;7.18;84.71;100262.22;7392325;19;20368;-67
2023/12/30 06:35:34;;;;;;;7.60;2.30;;;;;;;7.17;84.73;100265.03;7385899;19;20340;-67
2023/12/30 06:38:02;;;;;;;6.88;2.22;;;;;;;7.14;84.53;100260.91;7392474;19;20360;-67
2023/12/30 06:40:28;;;;;;;9.50;2.40;;;;;;;7.13;84.87;100261.88;7393053;19;20373;-67
2023/12/30 06:42:55;;;;;;;7.60;2.50;;;;;;;7.12;85.03;100271.63;7393251;19;20344;-67
2023/12/30 06:45:22;;;;;;;7.13;2.33;;;;;;;7.13;84.88;100267.16;7393065;19;20902;-67
2023/12/30 06:47:49;;;;;;;6.68;2.10;;;;;;;7.10;84.98;100278.88;7393615;19;20719;-67
2023/12/30 06:50:16;;;;;;;6.68;2.17;;;;;;;7.08;85.15;100288.75;7389775;19;20393;-66
2023/12/30 06:52:47;;;;;;;7.78;2.20;;;;;;;7.08;85.05;100291.38;7393369;19;20337;-67
2023/12/30 06:55:14;;;;;;;7.53;1.98;;;;;;;7.08;85.07;100282.66;7388799;19;20347;-67
2023/12/30 06:57:51;;;;;;;8.82;2.22;;;;;;;7.06;84.72;100279.38;7393673;19;20348;-67
2023/12/30 07:00:19;;;;;;;8.05;2.42;;;;;;;7.07;84.93;100286.28;7389392;19;20368;-66
2023/12/30 07:02:46;;;;;;;7.40;2.20;;;;;;;7.06;84.64;100289.91;7393089;19;20360;-67
2023/12/30 07:05:13;;;;;;;8.30;2.35;;;;;;;7.01;84.44;100281.63;7389374;19;20340;-67
2023/12/30 07:07:40;;;;;;;6.07;2.10;;;;;;;6.99;84.15;100284.47;7392277;19;20369;-67
2023/12/30 07:10:07;;;;;;;8.55;2.42;;;;;;;7.05;83.86;100304.06;7396764;19;20356;-67
2023/12/30 07:12:34;;;;;;;10.48;2.22;;;;;;;7.06;83.88;100300.47;7396318;19;20340;-67
2023/12/30 07:15:01;;;;;;;7.78;2.22;;;;;;;7.05;83.97;100293.53;7392388;19;20978;-67
2023/12/30 07:17:28;;;;;;;7.43;2.30;;;;;;;7.03;83.67;100311.31;7393364;19;20389;-67
2023/12/30 07:19:55;;;;;;;8.48;2.28;;;;;;;7.07;83.30;100307.38;7397110;19;20373;-67
2023/12/30 07:22:22;;;;;;;8.95;2.45;;;;;;;7.14;83.08;100300.47;7393774;19;20881;-67
2023/12/30 07:24:49;;;;;;;7.93;1.88;;;;;;;7.11;83.09;100321.88;7396556;19;20851;-67
2023/12/30 07:27:15;;;;;;;5.20;1.95;;;;;;;7.12;83.19;100305.09;7396320;19;20349;-66
2023/12/30 07:29:42;;;;;;;8.15;2.42;;;;;;;7.12;83.13;100320.91;7396376;19;20377;-67
2023/12/30 07:32:09;;;;;;;7.20;2.20;;;;;;;7.15;83.23;100321.41;7396157;19;20385;-67
2023/12/30 07:34:36;;;;;;;10.20;2.47;;;;;;;7.15;83.32;100310.84;7394317;19;21419;-67
2023/12/30 07:37:04;;;;;;;9.18;2.20;;;;;;;7.15;83.30;100320.59;7394637;19;20328;-66
2023/12/30 07:39:32;;;;;;;9.05;2.80;;;;;;;7.17;83.36;100321.25;7393863;19;20492;-67
2023/12/30 07:41:59;;;;;;;8.30;2.30;;;;;;;7.18;83.10;100320.25;7393459;19;20495;-67
2023/12/30 07:44:28;;;;;;;6.82;2.15;;;;;;;7.16;83.42;100316.94;7397577;19;20341;-67
2023/12/30 07:46:55;;;;;;;8.50;2.72;;;;;;;7.15;83.26;100325.84;7394647;19;20373;-67
2023/12/30 07:49:22;;;;;;;7.27;2.40;;;;;;;7.15;83.55;100333.78;7392221;19;20381;-67
2023/12/30 07:51:49;;;;;;;8.80;2.60;;;;;;;7.15;83.50;100323.22;7397000;19;20372;-67
2023/12/30 07:54:15;;;;;;;11.02;2.60;;;;;;;7.21;83.30;100329.66;7391200;19;20344;-66
2023/12/30 07:56:42;;;;;;;6.65;2.10;;;;;;;7.22;83.42;100337.41;7394912;19;20353;-67
2023/12/30 07:59:11;;;;;;;7.32;2.13;;;;;;;7.24;82.95;100339.88;7392763;19;20683;-67
2023/12/30 08:01:43;;;;;;;8.73;2.40;;;;;;;7.28;82.62;100336.75;7393902;19;20388;-67
2023/12/30 08:04:10;;;;;;;8.23;2.60;;;;;;;7.33;82.77;100355.59;7392559;19;20320;-67
2023/12/30 08:06:40;;;;;;;9.35;2.25;;;;;;;7.35;82.33;100364.16;7395538;19;20360;-67
2023/12/30 08:09:07;;;;;;;6.45;2.00;;;;;;;7.44;82.52;100345.69;7394063;19;20352;-67
2023/12/30 08:11:35;;;;;;;8.60;2.35;;;;;;;7.42;82.52;100359.06;7394808;19;20364;-67
2023/12/30 08:14:20;;;;;;;7.75;2.70;;;;;;;7.47;82.47;100350.66;7393646;19;20368;-67
2023/12/30 08:16:47;;;;;;;9.75;2.67;;;;;;;7.47;82.36;100355.94;7393997;19;20384;-67
2023/12/30 08:19:13;;;;;;;7.57;2.10;;;;;;;7.48;82.15;100355.78;7394301;19;20348;-67
2023/12/30 08:21:40;;;;;;;9.48;2.58;;;;;;;7.49;82.14;100351.31;7395564;19;20336;-67
2023/12/30 08:24:07;;;;;;;8.23;2.42;;;;;;;7.55;82.12;100358.59;7392321;19;20690;-67
2023/12/30 08:26:33;;;;;;;8.23;2.38;;;;;;;7.52;81.98;100375.56;7391967;19;20352;-67
2023/12/30 08:29:00;;;;;;;9.55;2.85;;;;;;;7.61;82.08;100365.84;7390258;19;20356;-67
2023/12/30 08:31:27;;;;;;;7.90;2.70;;;;;;;7.65;81.84;100359.25;7392372;19;20381;-67
2023/12/30 08:33:54;;;;;;;8.80;2.30;;;;;;;7.66;81.74;100363.53;7392777;19;20352;-67
2023/12/30 08:36:21;;;;;;;10.00;2.47;;;;;;;7.64;81.68;100373.44;7393467;19;20403;-67
2023/12/30 08:38:48;;;;;;;7.18;2.50;;;;;;;7.71;81.74;100369.16;7393335;19;20373;-67
2023/12/30 08:41:15;;;;;;;7.35;2.30;;;;;;;7.74;81.64;100370.66;7390337;19;20323;-67
2023/12/30 08:43:42;;;;;;;8.30;2.70;;;;;;;7.80;81.32;100377.06;7393897;19;20356;-68
2023/12/30 08:46:10;;;;;;;8.48;2.70;;;;;;;7.81;81.13;100368.97;7390991;19;20375;-70
2023/12/30 08:48:37;;;;;;;9.52;2.78;;;;;;;7.86;81.05;100373.75;7391124;19;20360;-65
2023/12/30 08:51:04;;;;;;;9.27;3.03;;;;;;;7.89;80.73;100365.53;7392970;19;20348;-65
2023/12/30 08:53:31;;;;;;;6.57;2.30;;;;;;;7.92;80.44;100368.66;7391528;19;20361;-65
2023/12/30 08:55:57;;;;;;;7.47;2.30;;;;;;;7.96;80.17;100379.72;7393090;19;20368;-65
2023/12/30 08:58:24;;;;;;;11.00;2.80;;;;;;;7.96;80.08;100377.06;7392525;19;20681;-65
2023/12/30 09:00:52;;;;;;;7.07;2.30;;;;;;;8.03;80.35;100391.25;7391037;19;20344;-65
2023/12/30 09:03:19;;;;;;;7.50;2.10;;;;;;;8.02;79.71;100407.28;7392893;19;20380;-65
2023/12/30 09:05:46;;;;;;;7.88;2.17;;;;;;;8.06;79.47;100395.41;7391733;19;20368;-65
2023/12/30 09:08:13;;;;;;;8.10;2.10;;;;;;;8.13;79.33;100394.56;7391930;19;20361;-65
2023/12/30 09:10:40;;;;;;;8.63;2.35;;;;;;;8.20;78.41;100401.81;7390600;19;20896;-65
2023/12/30 09:13:06;;;;;;;6.28;2.17;;;;;;;8.29;78.71;100403.47;7390864;19;20336;-65
2023/12/30 09:15:34;;;;;;;8.70;2.08;;;;;;;8.32;77.89;100421.63;7389794;19;20853;-65
2023/12/30 09:18:01;;;;;;;7.90;2.55;;;;;;;8.39;77.65;100422.59;7393317;19;20360;-65
2023/12/30 09:20:28;;;;;;;8.68;2.13;;;;;;;8.40;77.42;100437.50;7390187;19;20370;-65
2023/12/30 09:22:55;;;;;;;7.07;2.38;;;;;;;8.42;77.00;100419.69;7389354;19;20364;-65
2023/12/30 09:25:21;;;;;;;6.63;1.90;;;;;;;8.44;77.29;100444.13;7389952;19;20787;-65
2023/12/30 09:27:48;;;;;;;6.55;2.10;;;;;;;8.40;76.52;100436.66;7389076;19;20649;-65
2023/12/30 09:30:16;;;;;;;6.55;2.20;;;;;;;8.42;77.02;100451.41;7392553;19;20518;-65
2023/12/30 09:32:43;;;;;;;6.70;2.10;;;;;;;8.41;76.64;100433.88;7391638;19;20349;-65
2023/12/30 09:35:10;;;;;;;9.02;2.50;;;;;;;8.49;76.97;100452.38;7390020;19;20389;-65
2023/12/30 09:37:37;;;;;;;8.45;2.30;;;;;;;8.47;76.27;100446.41;7384803;19;20887;-65
2023/12/30 09:40:04;;;;;;;8.95;2.28;;;;;;;8.52;76.21;100454.69;7388009;19;20352;-65
2023/12/30 09:42:31;;;;;;;8.50;2.10;;;;;;;8.50;75.95;100455.84;7387693;19;20379;-65
2023/12/30 09:44:58;;;;;;;7.22;2.00;;;;;;;8.57;76.49;100446.25;7391056;19;20377;-65
2023/12/30 09:47:27;;;;;;;7.20;2.60;;;;;;;8.52;76.09;100446.75;7392531;19;20360;-65
2023/12/30 09:49:58;;;;;;;7.85;2.25;;;;;;;8.58;75.57;100476.97;7386448;19;21200;-65
2023/12/30 09:52:24;;;;;;;9.70;2.40;;;;;;;8.68;75.63;100458.28;7389301;19;20316;-65
2023/12/30 09:54:51;;;;;;;4.75;1.80;;;;;;;8.62;75.19;100459.78;7387199;19;20503;-65
2023/12/30 09:57:18;;;;;;;5.73;2.03;;;;;;;8.75;75.64;100462.72;7388583;19;20759;-65
2023/12/30 09:59:46;;;;;;;7.87;2.37;;;;;;;8.82;75.10;100462.91;7387398;19;20349;-65
2023/12/30 10:02:13;;;;;;;6.88;1.92;;;;;;;8.81;74.91;100466.53;7389009;19;20361;-65
2023/12/30 10:04:40;;;;;;;7.63;1.90;;;;;;;8.92;74.73;100473.28;7392145;19;20365;-65
2023/12/30 10:07:07;;;;;;;7.40;2.08;;;;;;;8.94;74.82;100482.69;7388362;19;20325;-65
2023/12/30 10:09:34;;;;;;;7.28;1.95;;;;;;;9.00;74.50;100475.09;7386473;19;20432;-65
2023/12/30 10:12:02;;;;;;;7.43;2.15;;;;;;;8.98;73.88;100464.66;7388320;19;20348;-65
2023/12/30 10:14:29;;;;;;;6.25;1.92;;;;;;;9.03;74.25;100480.03;7387625;19;20380;-65
2023/12/30 10:16:55;;;;;;;5.63;2.20;;;;;;;9.07;74.18;100465.47;7387894;19;20868;-65
2023/12/30 10:19:22;;;;;;;7.30;2.30;;;;;;;9.07;74.35;100466.28;7385787;19;20406;-65
2023/12/30 10:21:49;;;;;;;6.85;2.40;;;;;;;9.07;74.49;100471.56;7389708;19;20387;-65
2023/12/30 10:24:16;;;;;;;8.32;2.72;;;;;;;9.19;74.61;100469.38;7390515;19;20369;-66
2023/12/30 10:26:43;;;;;;;7.93;1.90;;;;;;;9.15;74.14;100470.72;7387981;19;20328;-65
2023/12/30 10:29:10;;;;;;;7.25;2.50;;;;;;;9.21;74.11;100477.97;7388427;19;20360;-65
2023/12/30 10:31:37;;;;;;;6.22;2.05;;;;;;;9.19;73.56;100479.97;7386924;19;20655;-65
2023/12/30 10:34:07;;;;;;;6.47;2.23;;;;;;;9.15;73.25;100478.66;7391359;19;20380;-65
2023/12/30 10:36:36;;;;;;;5.40;2.10;;;;;;;9.17;73.17;100474.03;7385993;19;20398;-65
2023/12/30 10:39:05;;;;;;;7.78;2.17;;;;;;;9.17;72.02;100474.03;7391870;19;20397;-65
2023/12/30 10:41:31;;;;;;;8.25;2.28;;;;;;;9.11;70.64;100472.06;7384387;19;20373;-65
2023/12/30 10:43:58;;;;;;;5.87;1.93;;;;;;;9.12;71.48;100473.72;7385079;19;20353;-65
2023/12/30 10:46:25;;;;;;;6.70;1.90;;;;;;;9.17;71.62;100480.13;7379499;19;20353;-65
2023/12/30 10:49:03;;;;;;;7.45;2.10;;;;;;;9.17;71.39;100477.50;7383586;19;20423;-65
2023/12/30 10:51:34;;;;;;;7.05;2.10;;;;;;;9.26;72.06;100480.13;7389421;19;20407;-65
2023/12/30 10:54:06;;;;;;;7.88;2.30;;;;;;;9.28;71.41;100478.94;7392847;19;20411;-65
2023/12/30 10:56:40;;;;;;;7.18;2.10;;;;;;;9.33;71.89;100478.44;7394687;19;20406;-65
2023/12/30 10:59:07;;;;;;;6.00;2.13;;;;;;;9.34;71.97;100472.97;7393591;19;20464;-65
2023/12/30 11:01:36;;;;;;;6.72;2.05;;;;;;;9.38;72.08;100471.63;7394641;19;20349;-65
2023/12/30 11:04:11;;;;;;;6.25;2.08;;;;;;;9.35;71.56;100479.91;7393331;19;20373;-65
2023/12/30 11:06:53;;;;;;;7.95;2.00;;;;;;;9.36;71.99;100489.50;7397974;19;20906;-65
2023/12/30 11:09:24;;;;;;;6.93;2.10;;;;;;;9.34;72.87;100467.66;7394995;19;20922;-65
2023/12/30 11:11:52;;;;;;;6.68;2.00;;;;;;;9.38;72.33;100484.84;7394009;19;20507;-65
2023/12/30 11:14:20;;;;;;;6.95;2.20;;;;;;;9.33;71.76;100473.16;7392430;19;20723;-65
2023/12/30 11:16:51;;;;;;;7.80;2.10;;;;;;;9.39;72.01;100469.78;7393562;19;20467;-65
2023/12/30 11:19:28;;;;;;;8.40;2.10;;;;;;;9.44;72.64;100471.94;7393799;19;20353;-65
2023/12/30 11:21:58;;;;;;;8.82;2.33;;;;;;;9.44;72.12;100461.34;7393864;19;20427;-64
2023/12/30 11:24:26;;;;;;;7.22;2.05;;;;;;;9.48;71.87;100457.34;7392451;19;20381;-65
2023/12/30 11:26:54;;;;;;;6.00;1.92;;;;;;;9.49;71.92;100462.47;7393141;19;20693;-65
2023/12/30 11:29:25;;;;;;;10.55;2.25;;;;;;;9.48;72.03;100458.19;7395235;19;20345;-65
2023/12/30 11:31:54;;;;;;;7.35;1.77;;;;;;;9.58;71.83;100465.88;7392213;19;20376;-65
2023/12/30 11:34:23;;;;;;;6.65;2.00;;;;;;;9.61;72.46;100462.91;7391818;19;20360;-65
2023/12/30 11:36:52;;;;;;;7.82;2.10;;;;;;;9.71;71.56;100463.53;7393484;19;20369;-65